Rechercher aéroport 
image banner adimage banner ad
image banner ad

SVMG - Margarita / Intl General En Jefe Santiago Marino

Situé à Margarita, Venezuela

ICAO - SVMG, IATA - PMV

Données fournies par Airmate  

Information générale

Coordonnées: N10°54'45" W63°57'59"
Élévation : 74 feet MSL.
 
Voir autres Aéroports à Nueva Esparta

Données opérationnelles

Accessible au public
Heure actuelle UTC:
Heure actuelle locale:
Météo
METAR: SVMG 261102Z AUTO 06004KT NCD 27/24 Q1013
TAF: TAF SVMG 260400Z 2606/2706 05003KT 9999 SCT016 TX33/2618Z TN23/2609Z BECMG 2606/2610 07009KT 9999 SCT016
Voir NOTAMs / SUP AIP / TFR affectant cet aéroport [VIEW]
Fréquences de communication: [VIEW]

Pistes:

Identifiant RWYQFULongueur (ft)Largeur (ft)SurfaceLDA (ft)
0978°10499150ASP
27258°9843148

Coordonnées de l'aéroport

Adresse: Margarita Venezuela

Vue satellite de SVMG